Time;durP1;ratioP1;P1;durP2;ratioP2;P2;SDS_P1;SDS_P2;PMS_P1;PMS_P2;Temp;Humidity;BMP_temperature;BMP_pressure;BME280_temperature;BME280_humidity;BME280_pressure;Samples;Min_cycle;Max_cycle;Signal;HPM_P1;HPM_P2
2021/08/07 00:00:47;;;;;;;6.40;4.00;;;;;;;;;;4879213;29;20410;-45
2021/08/07 00:03:15;;;;;;;6.10;4.53;;;;;;;;;;4877848;29;20124;-42
2021/08/07 00:05:42;;;;;;;8.30;4.80;;;;;;;;;;4878804;29;20192;-42
2021/08/07 00:08:09;;;;;;;7.03;4.50;;;;;;;;;;4878989;29;20045;-48
2021/08/07 00:10:36;;;;;;;8.57;5.20;;;;;;;;;;4878772;29;20059;-42
2021/08/07 00:13:03;;;;;;;8.27;5.18;;;;;;;;;;4878589;29;20068;-42
2021/08/07 00:15:30;;;;;;;9.07;5.50;;;;;;;;;;4877674;29;20075;-42
2021/08/07 00:17:57;;;;;;;7.57;4.95;;;;;;;;;;4879150;29;20041;-44
2021/08/07 00:20:24;;;;;;;7.28;4.78;;;;;;;;;;4878529;29;20041;-43
2021/08/07 00:22:51;;;;;;;7.80;4.45;;;;;;;;;;4878493;29;20703;-42
2021/08/07 00:25:18;;;;;;;8.38;4.53;;;;;;;;;;4877674;29;20518;-47
2021/08/07 00:27:44;;;;;;;9.02;4.30;;;;;;;;;;4879246;29;20203;-43
2021/08/07 00:30:12;;;;;;;7.10;4.60;;;;;;;;;;4877595;29;20049;-44
2021/08/07 00:32:39;;;;;;;7.30;4.38;;;;;;;;;;4878415;29;20087;-43
2021/08/07 00:35:10;;;;;;;9.07;4.97;;;;;;;;;;4876538;29;20115;-46
2021/08/07 00:37:40;;;;;;;7.95;5.53;;;;;;;;;;4876970;29;20127;-45
2021/08/07 00:40:10;;;;;;;7.55;4.57;;;;;;;;;;4876872;29;20041;-45
2021/08/07 00:42:38;;;;;;;8.45;4.80;;;;;;;;;;4876623;29;20045;-50
2021/08/07 00:45:15;;;;;;;9.65;4.93;;;;;;;;;;4876240;29;20064;-42
2021/08/07 00:47:45;;;;;;;6.13;4.60;;;;;;;;;;4893012;29;20048;-43
2021/08/07 00:50:14;;;;;;;8.20;4.35;;;;;;;;;;4895512;29;20048;-46
2021/08/07 00:52:43;;;;;;;7.90;4.97;;;;;;;;;;4894981;29;20048;-45
2021/08/07 00:55:16;;;;;;;6.82;4.90;;;;;;;;;;4869602;29;20048;-44
2021/08/07 00:57:44;;;;;;;8.15;5.25;;;;;;;;;;4892240;29;20045;-48
2021/08/07 01:00:16;;;;;;;8.63;5.25;;;;;;;;;;4892061;29;20132;-43
2021/08/07 01:02:47;;;;;;;6.55;4.95;;;;;;;;;;4875442;29;20065;-48
2021/08/07 01:05:21;;;;;;;9.85;4.70;;;;;;;;;;4860402;29;20103;-47
2021/08/07 01:07:54;;;;;;;6.00;4.22;;;;;;;;;;4876645;29;20080;-47
2021/08/07 01:10:21;;;;;;;;;;;;;;;;;;4877067;29;20045;-46
2021/08/07 01:12:54;;;;;;;;;;;;;;;;;;4877188;29;19971;-46
2021/08/07 01:15:22;;;;;;;7.53;4.88;;;;;;;;;;4875664;29;19924;-48
2021/08/07 01:17:52;;;;;;;11.07;5.15;;;;;;;;;;4890678;29;20128;-43
2021/08/07 01:20:26;;;;;;;8.77;5.28;;;;;;;;;;4876300;29;20195;-49
2021/08/07 01:23:14;;;;;;;8.75;4.93;;;;;;;;;;4876342;29;20516;-46
2021/08/07 01:25:50;;;;;;;6.20;4.30;;;;;;;;;;4876072;29;20531;-48
2021/08/07 01:28:25;;;;;;;6.50;5.03;;;;;;;;;;4876320;29;20052;-45
2021/08/07 01:30:53;;;;;;;9.50;5.10;;;;;;;;;;4876299;29;20128;-48
2021/08/07 01:33:25;;;;;;;8.02;4.97;;;;;;;;;;4876324;29;20049;-46
2021/08/07 01:35:52;;;;;;;7.70;4.82;;;;;;;;;;4876625;29;20064;-44
2021/08/07 01:38:19;;;;;;;8.45;4.80;;;;;;;;;;4876278;29;20045;-43
2021/08/07 01:41:17;;;;;;;7.55;4.80;;;;;;;;;;4877328;29;20053;-46
2021/08/07 01:43:47;;;;;;;6.68;4.32;;;;;;;;;;4875765;29;20079;-44
2021/08/07 01:46:18;;;;;;;8.60;5.00;;;;;;;;;;4881334;29;20037;-43
2021/08/07 01:49:02;;;;;;;7.25;4.78;;;;;;;;;;4894528;29;20076;-47
2021/08/07 01:51:54;;;;;;;6.85;4.47;;;;;;;;;;4894759;29;20063;-43
2021/08/07 01:54:32;;;;;;;7.05;4.38;;;;;;;;;;4889615;29;20424;-43
2021/08/07 01:57:06;;;;;;;6.78;4.45;;;;;;;;;;4875975;29;20045;-45
2021/08/07 01:59:34;;;;;;;7.68;4.22;;;;;;;;;;4860648;29;20106;-46
2021/08/07 02:02:03;;;;;;;6.60;4.57;;;;;;;;;;4875644;29;20120;-44
2021/08/07 02:04:59;;;;;;;8.07;4.93;;;;;;;;;;4873050;29;20492;-42
2021/08/07 02:07:31;;;;;;;7.03;5.05;;;;;;;;;;4875807;29;20037;-44
2021/08/07 02:10:03;;;;;;;9.25;6.13;;;;;;;;;;4877311;29;20400;-43
2021/08/07 02:12:33;;;;;;;6.75;4.95;;;;;;;;;;4875243;29;20045;-46
2021/08/07 02:15:09;;;;;;;6.50;4.80;;;;;;;;;;4878958;29;20072;-44
2021/08/07 02:17:40;;;;;;;6.95;4.50;;;;;;;;;;4879871;29;20068;-44
2021/08/07 02:20:07;;;;;;;9.15;4.72;;;;;;;;;;4879571;29;20069;-45
2021/08/07 02:22:34;;;;;;;9.50;4.90;;;;;;;;;;4879049;29;20076;-48
2021/08/07 02:25:01;;;;;;;7.28;5.28;;;;;;;;;;4878571;29;20048;-43
2021/08/07 02:27:39;;;;;;;6.30;4.63;;;;;;;;;;4879451;29;20128;-42
2021/08/07 02:30:09;;;;;;;6.82;4.97;;;;;;;;;;4879535;29;20126;-43
2021/08/07 02:32:41;;;;;;;6.50;4.05;;;;;;;;;;4879054;29;20049;-45
2021/08/07 02:35:10;;;;;;;6.47;4.25;;;;;;;;;;4878581;29;20048;-47
2021/08/07 02:37:37;;;;;;;4.88;3.42;;;;;;;;;;4879260;29;20043;-45
2021/08/07 02:40:06;;;;;;;6.20;4.13;;;;;;;;;;4879468;29;20124;-47
2021/08/07 02:42:40;;;;;;;5.75;3.78;;;;;;;;;;4878967;29;20491;-47
2021/08/07 02:45:08;;;;;;;6.78;4.65;;;;;;;;;;4878273;29;20126;-44
2021/08/07 02:47:36;;;;;;;5.50;4.15;;;;;;;;;;4891390;29;20046;-45
2021/08/07 02:50:05;;;;;;;5.82;4.30;;;;;;;;;;4879668;29;20048;-47
2021/08/07 02:52:34;;;;;;;8.13;4.60;;;;;;;;;;4878865;29;20487;-47
2021/08/07 02:55:03;;;;;;;6.60;4.57;;;;;;;;;;4877835;29;20052;-44
2021/08/07 02:57:30;;;;;;;6.78;4.65;;;;;;;;;;4879059;29;20057;-46
2021/08/07 02:59:58;;;;;;;6.25;4.57;;;;;;;;;;4879204;29;20041;-46
2021/08/07 03:02:26;;;;;;;6.40;4.20;;;;;;;;;;4878898;29;20048;-44
2021/08/07 03:04:54;;;;;;;7.35;4.20;;;;;;;;;;4884674;29;20083;-44
2021/08/07 03:07:22;;;;;;;5.47;4.32;;;;;;;;;;4878652;29;20570;-44
2021/08/07 03:09:49;;;;;;;5.72;3.90;;;;;;;;;;4878836;29;20045;-48
2021/08/07 03:12:17;;;;;;;5.35;3.78;;;;;;;;;;4878476;29;20052;-48
2021/08/07 03:14:44;;;;;;;4.72;3.80;;;;;;;;;;4877916;29;20561;-43
2021/08/07 03:17:12;;;;;;;6.35;3.80;;;;;;;;;;4878373;29;20052;-44
2021/08/07 03:19:42;;;;;;;7.38;3.85;;;;;;;;;;4878757;29;20041;-46
2021/08/07 03:22:10;;;;;;;5.38;3.42;;;;;;;;;;4878598;29;20037;-43
2021/08/07 03:24:39;;;;;;;4.60;3.55;;;;;;;;;;4877663;29;20041;-47
2021/08/07 03:27:06;;;;;;;7.82;3.60;;;;;;;;;;4879397;29;20049;-46
2021/08/07 03:29:35;;;;;;;7.47;4.03;;;;;;;;;;4878392;29;20049;-50
2021/08/07 03:32:09;;;;;;;5.18;3.50;;;;;;;;;;4878550;29;20068;-46
2021/08/07 03:34:39;;;;;;;4.53;3.50;;;;;;;;;;4877313;29;20049;-48
2021/08/07 03:37:07;;;;;;;4.22;3.17;;;;;;;;;;4878323;29;20033;-48
2021/08/07 03:39:40;;;;;;;6.13;3.20;;;;;;;;;;4878458;29;20041;-47
2021/08/07 03:42:07;;;;;;;5.40;3.58;;;;;;;;;;4878185;29;20330;-46
2021/08/07 03:44:34;;;;;;;5.18;3.38;;;;;;;;;;4885207;29;20535;-46
2021/08/07 03:47:01;;;;;;;5.95;3.80;;;;;;;;;;4885873;29;20235;-48
2021/08/07 03:49:28;;;;;;;5.28;3.38;;;;;;;;;;4877976;29;20045;-48
2021/08/07 03:51:55;;;;;;;5.47;3.25;;;;;;;;;;4879271;29;20113;-47
2021/08/07 03:54:22;;;;;;;6.43;3.88;;;;;;;;;;4892761;29;20411;-49
2021/08/07 03:56:51;;;;;;;6.68;3.50;;;;;;;;;;4892574;29;20045;-49
2021/08/07 03:59:19;;;;;;;6.68;3.35;;;;;;;;;;4877701;29;20041;-48
2021/08/07 04:01:47;;;;;;;5.07;3.10;;;;;;;;;;4879162;29;20059;-47
2021/08/07 04:04:19;;;;;;;5.63;2.92;;;;;;;;;;4876971;29;20047;-49
2021/08/07 04:06:47;;;;;;;4.70;2.85;;;;;;;;;;4877741;29;20397;-49
2021/08/07 04:09:20;;;;;;;5.85;3.10;;;;;;;;;;4877718;29;20529;-47
2021/08/07 04:11:48;;;;;;;5.28;2.90;;;;;;;;;;4877705;29;20055;-47
2021/08/07 04:14:15;;;;;;;4.32;3.30;;;;;;;;;;4877733;29;20045;-48
2021/08/07 04:16:43;;;;;;;6.70;3.72;;;;;;;;;;4877500;29;20444;-51
2021/08/07 04:19:15;;;;;;;4.95;3.67;;;;;;;;;;4877547;29;20120;-46
2021/08/07 04:21:47;;;;;;;7.15;3.50;;;;;;;;;;4877563;29;20089;-46
2021/08/07 04:24:14;;;;;;;6.53;3.47;;;;;;;;;;4882520;29;20053;-46
2021/08/07 04:26:41;;;;;;;6.50;3.63;;;;;;;;;;4896251;29;20048;-46
2021/08/07 04:29:11;;;;;;;4.45;2.90;;;;;;;;;;4895995;29;20049;-46
2021/08/07 04:31:38;;;;;;;7.38;3.30;;;;;;;;;;4896167;29;20493;-49
2021/08/07 04:34:06;;;;;;;6.50;3.17;;;;;;;;;;4889250;29;20049;-48
2021/08/07 04:36:33;;;;;;;4.65;2.95;;;;;;;;;;4877354;29;20049;-47
2021/08/07 04:39:00;;;;;;;5.57;3.40;;;;;;;;;;4877134;29;20060;-47
2021/08/07 04:41:27;;;;;;;5.18;3.47;;;;;;;;;;4878503;29;20041;-47
2021/08/07 04:43:54;;;;;;;7.50;3.35;;;;;;;;;;4876602;29;20044;-46
2021/08/07 04:46:22;;;;;;;5.43;3.50;;;;;;;;;;4877034;29;20109;-46
2021/08/07 04:48:50;;;;;;;4.68;3.05;;;;;;;;;;4877094;29;20052;-46
2021/08/07 04:51:17;;;;;;;4.32;3.60;;;;;;;;;;4877292;29;20049;-48
2021/08/07 04:53:45;;;;;;;6.50;3.28;;;;;;;;;;4876605;29;20080;-45
2021/08/07 04:56:15;;;;;;;5.35;3.03;;;;;;;;;;4883319;29;20447;-47
2021/08/07 04:58:42;;;;;;;5.72;3.10;;;;;;;;;;4892317;29;20530;-47
2021/08/07 05:01:11;;;;;;;11.05;3.33;;;;;;;;;;4876994;29;20049;-46
2021/08/07 05:03:38;;;;;;;6.35;3.63;;;;;;;;;;4876883;29;20048;-46
2021/08/07 05:06:09;;;;;;;5.00;3.15;;;;;;;;;;4883567;29;20048;-47
2021/08/07 05:08:37;;;;;;;4.90;2.90;;;;;;;;;;4877123;29;20057;-48
2021/08/07 05:11:04;;;;;;;7.30;3.30;;;;;;;;;;4876958;29;20471;-47
2021/08/07 05:13:33;;;;;;;4.65;3.00;;;;;;;;;;4876663;29;20475;-45
2021/08/07 05:16:01;;;;;;;4.82;2.97;;;;;;;;;;4875720;29;20496;-47
2021/08/07 05:18:29;;;;;;;6.15;3.72;;;;;;;;;;4876537;29;20522;-47
2021/08/07 05:20:59;;;;;;;5.25;3.55;;;;;;;;;;4876327;29;20064;-47
2021/08/07 05:23:26;;;;;;;6.90;3.22;;;;;;;;;;4876314;29;20056;-48
2021/08/07 05:25:54;;;;;;;4.72;3.35;;;;;;;;;;4876838;29;20403;-47
2021/08/07 05:28:21;;;;;;;5.82;3.38;;;;;;;;;;4876580;29;20534;-48
2021/08/07 05:30:48;;;;;;;4.18;3.13;;;;;;;;;;4877370;29;20513;-49
2021/08/07 05:33:15;;;;;;;4.88;3.17;;;;;;;;;;4876122;29;20436;-48
2021/08/07 05:35:42;;;;;;;4.70;3.08;;;;;;;;;;4875961;29;20049;-49
2021/08/07 05:38:11;;;;;;;4.30;2.95;;;;;;;;;;4878025;29;20053;-46
2021/08/07 05:40:38;;;;;;;6.68;3.10;;;;;;;;;;4876269;29;20041;-47
2021/08/07 05:43:05;;;;;;;5.57;3.10;;;;;;;;;;4889479;29;20069;-47
2021/08/07 05:45:33;;;;;;;3.53;2.67;;;;;;;;;;4875154;29;20065;-47
2021/08/07 05:48:00;;;;;;;4.50;2.78;;;;;;;;;;4891344;29;20041;-46
2021/08/07 05:50:30;;;;;;;5.38;3.13;;;;;;;;;;4860589;29;20144;-47
2021/08/07 05:52:56;;;;;;;6.45;3.20;;;;;;;;;;4876159;29;20079;-47
2021/08/07 05:55:23;;;;;;;4.28;3.22;;;;;;;;;;4876259;29;20053;-48
2021/08/07 05:57:50;;;;;;;4.30;2.92;;;;;;;;;;4876229;29;20038;-47
2021/08/07 06:00:18;;;;;;;7.03;3.08;;;;;;;;;;4876068;29;20396;-48
2021/08/07 06:02:50;;;;;;;4.35;2.90;;;;;;;;;;4876290;29;20072;-49
2021/08/07 06:05:37;;;;;;;4.18;2.70;;;;;;;;;;4875610;29;20076;-45
2021/08/07 06:08:06;;;;;;;5.40;3.30;;;;;;;;;;4876239;29;20052;-44
2021/08/07 06:10:35;;;;;;;4.50;3.10;;;;;;;;;;4875935;29;20056;-47
2021/08/07 06:13:02;;;;;;;6.55;3.30;;;;;;;;;;4877022;29;20056;-48
2021/08/07 06:15:29;;;;;;;6.13;3.00;;;;;;;;;;4875189;29;20136;-43
2021/08/07 06:17:57;;;;;;;5.22;2.83;;;;;;;;;;4875953;29;20060;-43
2021/08/07 06:20:26;;;;;;;5.57;2.70;;;;;;;;;;4875795;29;20128;-46
2021/08/07 06:22:53;;;;;;;5.75;3.13;;;;;;;;;;4875945;29;20123;-43
2021/08/07 06:25:21;;;;;;;5.93;2.90;;;;;;;;;;4874790;29;20045;-45
2021/08/07 06:27:54;;;;;;;5.32;2.67;;;;;;;;;;4877433;29;20068;-48
2021/08/07 06:30:21;;;;;;;;;;;;;;;;;;4876289;29;20041;-43
2021/08/07 06:32:48;;;;;;;3.92;3.00;;;;;;;;;;4891295;29;19923;-43
2021/08/07 06:35:15;;;;;;;5.22;2.97;;;;;;;;;;4889443;29;20045;-46
2021/08/07 06:37:42;;;;;;;7.13;3.03;;;;;;;;;;4875806;29;20164;-47
2021/08/07 06:40:09;;;;;;;3.90;2.90;;;;;;;;;;4875547;29;20037;-44
2021/08/07 06:42:37;;;;;;;6.60;3.45;;;;;;;;;;4875223;29;20093;-46
2021/08/07 06:45:11;;;;;;;5.15;2.80;;;;;;;;;;4875437;29;20442;-43
2021/08/07 06:47:38;;;;;;;5.78;3.30;;;;;;;;;;4875746;29;20473;-45
2021/08/07 06:50:08;;;;;;;5.97;3.30;;;;;;;;;;4875553;29;20045;-45
2021/08/07 06:52:35;;;;;;;9.65;3.05;;;;;;;;;;4875482;29;20503;-46
2021/08/07 06:55:03;;;;;;;5.47;3.25;;;;;;;;;;4874644;29;20933;-44
2021/08/07 06:57:30;;;;;;;6.28;2.92;;;;;;;;;;4875947;29;20049;-44
2021/08/07 07:00:02;;;;;;;5.53;3.10;;;;;;;;;;4876149;29;20121;-43
2021/08/07 07:02:30;;;;;;;4.93;2.97;;;;;;;;;;4879073;29;20064;-43
2021/08/07 07:04:57;;;;;;;5.50;3.03;;;;;;;;;;4878643;29;20057;-46
2021/08/07 07:07:24;;;;;;;4.75;3.20;;;;;;;;;;4878884;29;20041;-44
2021/08/07 07:09:51;;;;;;;6.53;2.78;;;;;;;;;;4878616;29;20128;-44
2021/08/07 07:12:18;;;;;;;5.07;3.15;;;;;;;;;;4879646;29;20048;-46
2021/08/07 07:14:45;;;;;;;5.18;2.75;;;;;;;;;;4877793;29;20093;-51
2021/08/07 07:17:12;;;;;;;4.85;2.90;;;;;;;;;;4888087;29;20133;-48
2021/08/07 07:19:39;;;;;;;4.15;2.75;;;;;;;;;;4878615;29;20041;-46
2021/08/07 07:22:07;;;;;;;4.38;3.00;;;;;;;;;;4878631;29;20041;-47
2021/08/07 07:24:35;;;;;;;5.55;2.78;;;;;;;;;;4893167;29;20057;-44
2021/08/07 07:27:02;;;;;;;5.38;2.75;;;;;;;;;;4879721;29;20045;-48
2021/08/07 07:29:29;;;;;;;4.32;2.70;;;;;;;;;;4862881;29;20055;-48
2021/08/07 07:31:57;;;;;;;5.88;2.50;;;;;;;;;;4878574;29;20045;-47
2021/08/07 07:34:23;;;;;;;6.40;3.03;;;;;;;;;;4861860;29;20056;-43
2021/08/07 07:36:51;;;;;;;4.78;2.80;;;;;;;;;;4878336;29;20049;-46
2021/08/07 07:39:17;;;;;;;4.60;2.60;;;;;;;;;;4879668;29;20049;-48
2021/08/07 07:41:44;;;;;;;5.68;2.58;;;;;;;;;;4878083;29;20053;-47
2021/08/07 07:44:11;;;;;;;3.70;2.30;;;;;;;;;;4877405;29;20048;-46
2021/08/07 07:46:38;;;;;;;5.55;2.75;;;;;;;;;;4877952;29;20049;-46
2021/08/07 07:49:05;;;;;;;6.25;2.47;;;;;;;;;;4878476;29;20093;-47
2021/08/07 07:51:33;;;;;;;3.75;2.67;;;;;;;;;;4878480;29;20079;-47
2021/08/07 07:54:00;;;;;;;5.10;2.47;;;;;;;;;;4881299;29;20516;-44
2021/08/07 07:56:29;;;;;;;4.95;2.40;;;;;;;;;;4878270;29;20049;-50
2021/08/07 07:58:56;;;;;;;3.95;2.40;;;;;;;;;;4878162;29;20064;-48
2021/08/07 08:01:23;;;;;;;4.55;2.47;;;;;;;;;;4893691;29;20052;-47
2021/08/07 08:03:51;;;;;;;5.20;2.33;;;;;;;;;;4892430;29;20052;-48
2021/08/07 08:06:18;;;;;;;5.20;2.55;;;;;;;;;;4878632;29;20800;-48
2021/08/07 08:08:45;;;;;;;3.85;2.63;;;;;;;;;;4877997;29;20441;-45
2021/08/07 08:11:13;;;;;;;3.55;2.58;;;;;;;;;;4877523;29;20055;-48
2021/08/07 08:13:39;;;;;;;4.22;2.20;;;;;;;;;;4877660;29;20049;-46
2021/08/07 08:16:07;;;;;;;4.38;2.13;;;;;;;;;;4878087;29;20049;-50
2021/08/07 08:18:35;;;;;;;4.82;2.15;;;;;;;;;;4893262;29;20423;-49
2021/08/07 08:21:02;;;;;;;5.55;2.28;;;;;;;;;;4877804;29;20042;-51
2021/08/07 08:23:31;;;;;;;4.70;2.05;;;;;;;;;;4877271;29;20045;-50
2021/08/07 08:25:58;;;;;;;2.85;1.83;;;;;;;;;;4877039;29;20068;-47
2021/08/07 08:28:25;;;;;;;4.88;2.05;;;;;;;;;;4877703;29;20053;-49
2021/08/07 08:30:52;;;;;;;4.93;2.47;;;;;;;;;;4877674;29;20045;-47
2021/08/07 08:33:20;;;;;;;4.35;2.25;;;;;;;;;;4877152;29;20045;-47
2021/08/07 08:35:47;;;;;;;4.60;2.30;;;;;;;;;;4878160;29;20428;-48
2021/08/07 08:38:15;;;;;;;3.97;1.80;;;;;;;;;;4877541;29;20073;-48
2021/08/07 08:40:42;;;;;;;5.22;2.10;;;;;;;;;;4877278;29;20490;-47
2021/08/07 08:43:10;;;;;;;4.47;1.80;;;;;;;;;;4877420;29;20055;-48
2021/08/07 08:45:38;;;;;;;3.75;1.60;;;;;;;;;;4876598;29;20129;-47
2021/08/07 08:48:06;;;;;;;2.92;1.92;;;;;;;;;;4877330;29;20045;-48
2021/08/07 08:50:33;;;;;;;4.97;2.10;;;;;;;;;;4878606;29;20053;-47
2021/08/07 08:53:01;;;;;;;3.22;1.98;;;;;;;;;;4877222;29;20076;-48
2021/08/07 08:55:29;;;;;;;4.70;2.20;;;;;;;;;;4876276;29;20037;-43
2021/08/07 08:57:57;;;;;;;4.88;1.95;;;;;;;;;;4877428;29;20037;-44
2021/08/07 09:00:24;;;;;;;3.15;2.03;;;;;;;;;;4877069;29;20668;-48
2021/08/07 09:02:51;;;;;;;3.08;2.05;;;;;;;;;;4877190;29;20153;-48
2021/08/07 09:05:18;;;;;;;3.75;2.17;;;;;;;;;;4886867;29;20384;-47
2021/08/07 09:07:46;;;;;;;4.30;2.08;;;;;;;;;;4877016;29;20495;-48
2021/08/07 09:10:22;;;;;;;3.05;1.80;;;;;;;;;;4876972;29;20125;-48
2021/08/07 09:12:51;;;;;;;4.45;1.98;;;;;;;;;;4892784;29;20392;-47
2021/08/07 09:15:38;;;;;;;3.77;1.87;;;;;;;;;;4887250;29;20041;-48
2021/08/07 09:18:31;;;;;;;2.60;1.88;;;;;;;;;;4877008;29;20300;-48
2021/08/07 09:21:10;;;;;;;2.60;1.60;;;;;;;;;;4876923;29;20072;-45
2021/08/07 09:23:38;;;;;;;3.30;1.60;;;;;;;;;;4876912;29;20037;-43
2021/08/07 09:26:15;;;;;;;2.67;1.52;;;;;;;;;;4877306;29;20057;-46
2021/08/07 09:28:41;;;;;;;2.40;1.48;;;;;;;;;;4861793;29;20137;-42
2021/08/07 09:31:08;;;;;;;3.70;1.95;;;;;;;;;;4876912;29;20101;-43
2021/08/07 09:33:36;;;;;;;3.13;1.67;;;;;;;;;;4876422;29;20507;-46
2021/08/07 09:36:03;;;;;;;4.18;1.85;;;;;;;;;;4875980;29;20049;-46
2021/08/07 09:38:31;;;;;;;2.47;1.65;;;;;;;;;;4876517;29;20080;-43
2021/08/07 09:41:08;;;;;;;3.40;1.75;;;;;;;;;;4876766;29;20045;-44
2021/08/07 09:43:47;;;;;;;3.35;1.75;;;;;;;;;;4876388;29;20043;-45
2021/08/07 09:46:22;;;;;;;4.13;1.85;;;;;;;;;;4876841;29;20112;-49
2021/08/07 09:48:56;;;;;;;4.32;1.90;;;;;;;;;;4876644;29;20441;-47
2021/08/07 09:51:29;;;;;;;3.90;1.58;;;;;;;;;;4876392;29;20057;-48
2021/08/07 09:54:02;;;;;;;2.80;1.60;;;;;;;;;;4875861;29;20056;-45
2021/08/07 09:56:42;;;;;;;3.38;1.60;;;;;;;;;;4876213;29;20112;-48
2021/08/07 09:59:10;;;;;;;4.43;2.00;;;;;;;;;;4876313;29;20041;-47
2021/08/07 10:01:38;;;;;;;4.72;2.33;;;;;;;;;;4876158;29;20048;-45
2021/08/07 10:04:10;;;;;;;3.90;2.13;;;;;;;;;;4875527;29;20104;-48
2021/08/07 10:06:40;;;;;;;5.50;1.90;;;;;;;;;;4876031;29;20060;-47
2021/08/07 10:09:09;;;;;;;3.75;1.70;;;;;;;;;;4876070;29;20101;-49
2021/08/07 10:11:36;;;;;;;2.33;1.70;;;;;;;;;;4877044;29;20503;-48
2021/08/07 10:14:07;;;;;;;4.18;1.60;;;;;;;;;;4875100;29;20047;-45
2021/08/07 10:16:41;;;;;;;2.33;1.75;;;;;;;;;;4875474;29;20041;-46
2021/08/07 10:19:08;;;;;;;3.72;2.00;;;;;;;;;;4875953;29;20124;-48
2021/08/07 10:21:36;;;;;;;4.63;1.80;;;;;;;;;;4875755;29;20072;-48
2021/08/07 10:24:04;;;;;;;3.22;1.85;;;;;;;;;;4874972;29;20488;-51
2021/08/07 10:26:32;;;;;;;3.40;1.88;;;;;;;;;;4875995;29;20554;-47
2021/08/07 10:29:02;;;;;;;2.90;1.83;;;;;;;;;;4877148;29;20503;-48
2021/08/07 10:31:31;;;;;;;4.07;2.33;;;;;;;;;;4876127;29;20049;-47
2021/08/07 10:34:00;;;;;;;3.13;1.73;;;;;;;;;;4883948;29;20053;-44
2021/08/07 10:36:27;;;;;;;3.45;2.00;;;;;;;;;;4879601;29;20045;-47
2021/08/07 10:38:57;;;;;;;5.15;2.05;;;;;;;;;;4879381;29;20041;-44
2021/08/07 10:41:29;;;;;;;2.88;1.70;;;;;;;;;;4880662;29;20379;-45
2021/08/07 10:43:58;;;;;;;5.00;2.10;;;;;;;;;;4879263;29;20049;-45
2021/08/07 10:46:26;;;;;;;4.40;2.15;;;;;;;;;;4881839;29;20299;-46
2021/08/07 10:48:53;;;;;;;3.95;1.90;;;;;;;;;;4879540;29;20048;-48
2021/08/07 10:51:23;;;;;;;4.00;1.95;;;;;;;;;;4879405;29;20044;-48
2021/08/07 10:53:49;;;;;;;3.25;2.17;;;;;;;;;;4880582;29;20638;-49
2021/08/07 10:56:28;;;;;;;3.88;1.80;;;;;;;;;;4879746;29;20053;-46
2021/08/07 10:58:56;;;;;;;3.80;1.90;;;;;;;;;;4880571;29;20502;-51
2021/08/07 11:01:23;;;;;;;4.90;2.20;;;;;;;;;;4894907;29;20132;-48
2021/08/07 11:04:02;;;;;;;3.00;2.10;;;;;;;;;;4892041;29;20056;-48
2021/08/07 11:06:38;;;;;;;3.55;2.10;;;;;;;;;;4880241;29;20060;-46
2021/08/07 11:09:20;;;;;;;3.95;2.20;;;;;;;;;;4880339;29;20135;-46
2021/08/07 11:11:48;;;;;;;3.00;1.83;;;;;;;;;;4880035;29;20067;-45
2021/08/07 11:14:28;;;;;;;4.18;2.08;;;;;;;;;;4879416;29;20049;-46
2021/08/07 11:17:04;;;;;;;2.92;1.90;;;;;;;;;;4879773;29;20084;-47
2021/08/07 11:19:43;;;;;;;5.03;2.00;;;;;;;;;;4879975;29;20141;-43
2021/08/07 11:22:18;;;;;;;3.08;1.90;;;;;;;;;;4880254;29;20105;-44
2021/08/07 11:25:03;;;;;;;2.90;1.77;;;;;;;;;;4877959;29;20503;-47
2021/08/07 11:27:45;;;;;;;3.25;1.80;;;;;;;;;;4879907;29;20077;-43
2021/08/07 11:30:17;;;;;;;3.05;1.95;;;;;;;;;;4878712;29;20139;-47
2021/08/07 11:32:56;;;;;;;4.72;2.20;;;;;;;;;;4893900;29;20045;-48
2021/08/07 11:35:30;;;;;;;4.55;2.40;;;;;;;;;;4877860;29;20049;-43
2021/08/07 11:40:37;;;;;;;2.90;1.88;;;;;;;;;;4879707;29;20132;-47
2021/08/07 11:43:04;;;;;;;6.47;2.28;;;;;;;;;;4879458;29;20449;-45
2021/08/07 11:45:31;;;;;;;2.63;1.95;;;;;;;;;;4878219;29;20178;-46
2021/08/07 11:47:58;;;;;;;3.70;1.55;;;;;;;;;;4880059;29;20061;-49
2021/08/07 11:50:25;;;;;;;4.22;2.00;;;;;;;;;;4879723;29;20057;-47
2021/08/07 11:52:51;;;;;;;6.20;2.30;;;;;;;;;;4879586;29;20053;-47
2021/08/07 11:55:19;;;;;;;2.88;1.90;;;;;;;;;;4878859;29;20095;-46
2021/08/07 11:57:46;;;;;;;5.63;1.80;;;;;;;;;;4879402;29;20052;-45
2021/08/07 12:00:20;;;;;;;3.20;1.90;;;;;;;;;;4879497;29;20459;-47
2021/08/07 12:02:56;;;;;;;9.43;2.42;;;;;;;;;;4879514;29;20075;-47
2021/08/07 12:05:23;;;;;;;2.88;2.00;;;;;;;;;;4878199;29;20117;-47
2021/08/07 12:08:16;;;;;;;5.75;2.03;;;;;;;;;;4879076;29;20045;-47
2021/08/07 12:10:48;;;;;;;11.48;2.58;;;;;;;;;;4877645;29;20079;-51
2021/08/07 12:13:18;;;;;;;6.03;2.30;;;;;;;;;;4879252;29;20071;-45
2021/08/07 12:15:55;;;;;;;3.97;2.00;;;;;;;;;;4878066;29;20044;-48
2021/08/07 12:18:22;;;;;;;6.70;1.60;;;;;;;;;;4879138;29;20045;-50
2021/08/07 12:20:50;;;;;;;3.25;1.98;;;;;;;;;;4879088;29;20045;-49
2021/08/07 12:23:17;;;;;;;3.28;2.00;;;;;;;;;;4878914;29;20056;-44
2021/08/07 12:25:44;;;;;;;3.47;1.60;;;;;;;;;;4878285;29;20049;-51
2021/08/07 12:28:15;;;;;;;3.50;1.85;;;;;;;;;;4878919;29;20478;-49
2021/08/07 12:30:52;;;;;;;4.10;2.13;;;;;;;;;;4878924;29;20080;-46
2021/08/07 12:33:20;;;;;;;3.15;1.90;;;;;;;;;;4878869;29;20527;-46
2021/08/07 12:35:47;;;;;;;3.78;1.85;;;;;;;;;;4877791;29;20045;-47
2021/08/07 12:38:18;;;;;;;5.90;2.10;;;;;;;;;;4877579;29;20080;-46
2021/08/07 12:40:48;;;;;;;3.35;1.80;;;;;;;;;;4878886;29;20076;-47
2021/08/07 12:43:15;;;;;;;2.13;1.75;;;;;;;;;;4878318;29;20072;-48
2021/08/07 12:45:42;;;;;;;3.42;1.77;;;;;;;;;;4877701;29;20499;-45
2021/08/07 12:48:09;;;;;;;3.45;1.90;;;;;;;;;;4878494;29;20511;-47
2021/08/07 12:50:36;;;;;;;5.55;2.05;;;;;;;;;;4878402;29;20049;-48
2021/08/07 12:53:04;;;;;;;4.78;1.98;;;;;;;;;;4878514;29;20049;-46
2021/08/07 12:55:33;;;;;;;2.60;1.70;;;;;;;;;;4877718;29;20077;-50
2021/08/07 12:58:08;;;;;;;4.03;1.90;;;;;;;;;;4876145;29;20195;-49
2021/08/07 13:00:35;;;;;;;2.85;1.75;;;;;;;;;;4878552;29;20148;-48
2021/08/07 13:03:03;;;;;;;2.47;1.92;;;;;;;;;;4878172;29;20052;-49
2021/08/07 13:05:30;;;;;;;4.40;1.90;;;;;;;;;;4877515;29;20101;-49
2021/08/07 13:07:57;;;;;;;2.95;1.70;;;;;;;;;;4878250;29;20041;-47
2021/08/07 13:10:29;;;;;;;4.32;1.75;;;;;;;;;;4878417;29;20069;-48
2021/08/07 13:12:56;;;;;;;3.07;1.73;;;;;;;;;;4877037;29;20037;-47
2021/08/07 13:15:23;;;;;;;4.25;1.75;;;;;;;;;;4877489;29;20445;-49
2021/08/07 13:17:53;;;;;;;3.10;1.77;;;;;;;;;;4877921;29;20407;-48
2021/08/07 13:20:39;;;;;;;3.15;1.83;;;;;;;;;;4878142;29;20037;-51
2021/08/07 13:23:06;;;;;;;3.65;2.53;;;;;;;;;;4878082;29;20045;-46
2021/08/07 13:25:33;;;;;;;3.72;1.88;;;;;;;;;;4877160;29;20476;-49
2021/08/07 13:28:11;;;;;;;3.63;2.35;;;;;;;;;;4877911;29;20051;-50
2021/08/07 13:30:48;;;;;;;5.35;2.13;;;;;;;;;;4878077;29;20082;-48
2021/08/07 13:33:23;;;;;;;2.67;1.70;;;;;;;;;;4877842;29;20044;-47
2021/08/07 13:35:50;;;;;;;2.45;1.88;;;;;;;;;;4877093;29;20037;-48
2021/08/07 13:38:17;;;;;;;3.03;1.75;;;;;;;;;;4877872;29;20045;-48
2021/08/07 13:40:43;;;;;;;3.40;2.00;;;;;;;;;;4877719;29;20064;-48
2021/08/07 13:43:11;;;;;;;6.47;1.80;;;;;;;;;;4877534;29;20047;-50
2021/08/07 13:45:38;;;;;;;4.78;1.90;;;;;;;;;;4876106;29;20115;-47
2021/08/07 13:48:05;;;;;;;2.30;1.77;;;;;;;;;;4877798;29;20045;-49
2021/08/07 13:50:32;;;;;;;4.93;1.80;;;;;;;;;;4877574;29;20297;-47
2021/08/07 13:52:58;;;;;;;2.65;1.75;;;;;;;;;;4877566;29;20592;-48
2021/08/07 13:55:25;;;;;;;3.47;2.28;;;;;;;;;;4876684;29;20527;-47
2021/08/07 13:57:52;;;;;;;3.38;2.03;;;;;;;;;;4877610;29;20127;-48
2021/08/07 14:00:19;;;;;;;2.97;1.90;;;;;;;;;;4877384;29;20571;-49
2021/08/07 14:02:47;;;;;;;3.35;1.90;;;;;;;;;;4877482;29;20047;-50
2021/08/07 14:05:15;;;;;;;4.30;1.85;;;;;;;;;;4876534;29;20048;-49
2021/08/07 14:07:42;;;;;;;4.65;1.95;;;;;;;;;;4877485;29;20108;-49
2021/08/07 14:10:09;;;;;;;3.28;1.77;;;;;;;;;;4876905;29;20065;-47
2021/08/07 14:12:36;;;;;;;3.17;1.63;;;;;;;;;;4877447;29;20063;-48
2021/08/07 14:15:03;;;;;;;2.15;1.50;;;;;;;;;;4876236;29;20069;-48
2021/08/07 14:17:30;;;;;;;3.97;1.67;;;;;;;;;;4877077;29;20041;-50
2021/08/07 14:19:56;;;;;;;3.00;1.80;;;;;;;;;;4877449;29;20056;-47
2021/08/07 14:22:24;;;;;;;4.22;2.08;;;;;;;;;;4877310;29;20392;-46
2021/08/07 14:24:51;;;;;;;2.67;1.80;;;;;;;;;;4875138;29;20044;-44
2021/08/07 14:27:18;;;;;;;7.63;2.15;;;;;;;;;;4876027;29;20049;-44
2021/08/07 14:29:44;;;;;;;3.22;2.08;;;;;;;;;;4877217;29;20480;-44
2021/08/07 14:32:11;;;;;;;3.03;2.05;;;;;;;;;;4877406;29;20055;-47
2021/08/07 14:34:38;;;;;;;2.67;1.60;;;;;;;;;;4876182;29;20059;-47
2021/08/07 14:37:05;;;;;;;6.10;2.03;;;;;;;;;;4877698;29;20072;-54
2021/08/07 14:39:31;;;;;;;2.65;2.20;;;;;;;;;;4876999;29;20140;-51
2021/08/07 14:41:58;;;;;;;3.03;1.73;;;;;;;;;;4876783;29;20534;-46
2021/08/07 14:44:25;;;;;;;2.53;1.80;;;;;;;;;;4876395;29;20128;-49
2021/08/07 14:46:52;;;;;;;3.25;2.00;;;;;;;;;;4876653;29;20045;-48
2021/08/07 14:49:19;;;;;;;3.45;1.70;;;;;;;;;;4877010;29;20472;-44
2021/08/07 14:51:46;;;;;;;2.42;1.60;;;;;;;;;;4877059;29;20275;-44
2021/08/07 14:54:12;;;;;;;4.75;2.10;;;;;;;;;;4876008;29;20105;-46
2021/08/07 14:56:39;;;;;;;3.35;1.60;;;;;;;;;;4876976;29;20068;-45
2021/08/07 14:59:06;;;;;;;4.55;2.00;;;;;;;;;;4876807;29;20495;-45